Time;durP1;ratioP1;P1;durP2;ratioP2;P2;SDS_P1;SDS_P2;PMS_P1;PMS_P2;Temp;Humidity;BMP_temperature;BMP_pressure;BME280_temperature;BME280_humidity;BME280_pressure;Samples;Min_cycle;Max_cycle;Signal;HPM_P1;HPM_P2
2022/09/19 00:01:33;;;;;;;2.07;1.27;;;9.40;99.90;;;;;;5041537;28;20270;-88
2022/09/19 00:04:01;;;;;;;1.17;0.93;;;9.40;99.90;;;;;;5042810;28;20188;-88
2022/09/19 00:06:28;;;;;;;0.90;0.90;;;9.30;99.90;;;;;;5067418;28;20164;-88
2022/09/19 00:08:55;;;;;;;1.13;1.03;;;9.40;99.90;;;;;;5071524;28;20207;-86
2022/09/19 00:11:22;;;;;;;7.93;0.77;;;9.30;99.90;;;;;;5059044;28;20192;-87
2022/09/19 00:13:50;;;;;;;0.97;0.87;;;9.70;99.90;;;;;;5060801;28;20207;-87
2022/09/19 00:16:26;;;;;;;1.43;0.87;;;9.30;99.90;;;;;;5042692;28;20204;-88
2022/09/19 00:18:53;;;;;;;0.63;0.53;;;9.20;99.90;;;;;;5068479;28;20183;-87
2022/09/19 00:21:21;;;;;;;1.03;0.60;;;10.10;99.90;;;;;;5063119;28;20172;-87
2022/09/19 00:26:31;;;;;;;0.63;0.63;;;9.20;99.90;;;;;;5077141;28;20191;-87
2022/09/19 00:28:57;;;;;;;1.13;0.90;;;9.20;99.90;;;;;;5070184;28;20193;-85
2022/09/19 00:31:23;;;;;;;0.73;0.63;;;9.30;99.90;;;;;;5042183;28;20189;-87
2022/09/19 00:33:50;;;;;;;0.60;0.60;;;9.10;99.90;;;;;;5077313;28;20203;-87
2022/09/19 00:36:16;;;;;;;0.57;0.57;;;9.00;99.90;;;;;;5046067;28;20193;-88
2022/09/19 00:38:44;;;;;;;0.70;0.70;;;9.00;99.90;;;;;;5060084;28;20214;-88
2022/09/19 00:41:14;;;;;;;2.70;0.67;;;8.80;99.90;;;;;;5056351;28;20182;-87
2022/09/19 00:43:58;;;;;;;0.50;0.50;;;8.80;99.90;;;;;;5056675;28;20313;-89
2022/09/19 00:46:26;;;;;;;2.10;1.10;;;8.80;99.90;;;;;;5038955;28;20184;-88
2022/09/19 00:49:00;;;;;;;0.80;0.80;;;8.70;99.90;;;;;;5063418;28;20183;-86
2022/09/19 00:51:40;;;;;;;1.37;1.27;;;8.70;99.90;;;;;;5067021;28;20624;-88
2022/09/19 00:54:13;;;;;;;0.70;0.63;;;8.60;99.90;;;;;;5057345;28;20175;-88
2022/09/19 00:56:46;;;;;;;1.13;1.10;;;8.60;99.90;;;;;;5059387;28;20175;-87
2022/09/19 00:59:12;;;;;;;2.53;1.33;;;8.50;99.90;;;;;;5039211;28;20212;-87
2022/09/19 01:01:38;;;;;;;1.30;1.23;;;8.50;99.90;;;;;;5018551;28;20238;-88
2022/09/19 01:04:16;;;;;;;1.73;1.47;;;8.50;99.90;;;;;;5020929;28;20197;-88
2022/09/19 01:07:06;;;;;;;2.10;2.00;;;8.30;99.90;;;;;;5044444;28;20172;-88
2022/09/19 01:09:40;;;;;;;1.53;1.00;;;8.30;99.90;;;;;;5055131;28;20188;-89
2022/09/19 01:12:23;;;;;;;1.57;1.47;;;8.20;99.90;;;;;;5057971;28;20179;-88
2022/09/19 01:15:05;;;;;;;2.80;1.17;;;8.30;99.90;;;;;;5067122;28;20156;-89
2022/09/19 01:17:46;;;;;;;3.07;2.47;;;8.20;99.90;;;;;;5055172;28;20195;-88
2022/09/19 01:20:24;;;;;;;2.63;2.10;;;8.10;99.90;;;;;;5054542;28;20219;-89
2022/09/19 01:23:19;;;;;;;2.03;1.80;;;8.00;99.90;;;;;;5071500;28;20268;-89
2022/09/19 01:25:47;;;;;;;5.03;2.03;;;8.00;99.90;;;;;;5071180;28;20175;-88
2022/09/19 01:28:32;;;;;;;2.47;1.67;;;7.90;99.90;;;;;;5073781;28;20177;-89
2022/09/19 01:31:18;;;;;;;2.63;1.23;;;7.90;99.90;;;;;;5074620;28;20164;-88
2022/09/19 01:34:02;;;;;;;0.80;0.80;;;7.80;99.90;;;;;;5054507;28;20175;-89
2022/09/19 01:36:52;;;;;;;0.83;0.80;;;7.80;99.90;;;;;;5054872;28;20254;-90
2022/09/19 01:39:28;;;;;;;0.63;0.63;;;7.70;99.90;;;;;;5043229;28;20318;-88
2022/09/19 01:41:54;;;;;;;1.23;1.13;;;8.00;99.90;;;;;;5035602;28;20188;-89
2022/09/19 01:44:23;;;;;;;0.97;0.90;;;7.70;99.90;;;;;;5053527;28;20226;-89
2022/09/19 01:47:14;;;;;;;0.93;0.93;;;7.70;99.90;;;;;;5052647;28;20184;-88
2022/09/19 01:49:58;;;;;;;0.73;0.73;;;7.60;99.90;;;;;;5052717;28;20658;-89
2022/09/19 01:52:40;;;;;;;0.50;0.50;;;7.60;99.90;;;;;;5051040;28;20188;-89
2022/09/19 01:55:33;;;;;;;0.83;0.83;;;7.50;99.90;;;;;;5052868;28;20198;-87
2022/09/19 01:58:09;;;;;;;0.80;0.80;;;7.50;99.90;;;;;;5050749;28;20176;-89
2022/09/19 02:00:38;;;;;;;0.80;0.80;;;8.60;99.90;;;;;;4996273;28;20212;-89
2022/09/19 02:03:21;;;;;;;3.87;1.43;;;7.40;99.90;;;;;;5021644;28;20696;-87
2022/09/19 02:06:00;;;;;;;2.50;1.40;;;7.40;99.90;;;;;;5053252;28;20176;-89
2022/09/19 02:08:47;;;;;;;0.70;0.70;;;7.40;99.90;;;;;;5053135;28;20302;-89
2022/09/19 02:11:17;;;;;;;2.10;2.00;;;7.40;99.90;;;;;;4995830;28;20200;-89
2022/09/19 02:13:48;;;;;;;1.20;1.03;;;8.10;99.90;;;;;;4996064;28;20184;-88
2022/09/19 02:16:30;;;;;;;1.20;0.90;;;7.20;99.90;;;;;;5013401;28;20173;-88
2022/09/19 02:19:08;;;;;;;0.87;0.70;;;7.90;99.90;;;;;;5013361;28;20216;-89
2022/09/19 02:21:38;;;;;;;1.53;0.80;;;7.30;99.90;;;;;;5016794;28;20184;-90
2022/09/19 02:24:09;;;;;;;0.67;0.67;;;7.60;99.90;;;;;;5053693;28;20249;-89
2022/09/19 02:26:37;;;;;;;0.73;0.73;;;8.40;99.90;;;;;;5051902;28;20542;-89
2022/09/19 02:29:04;;;;;;;3.33;1.00;;;7.10;99.90;;;;;;5052930;28;20259;-89
2022/09/19 02:31:30;;;;;;;0.40;0.40;;;7.70;99.90;;;;;;5052511;28;20189;-89
2022/09/19 02:34:00;;;;;;;0.93;0.93;;;7.00;99.90;;;;;;5049904;28;20668;-90
2022/09/19 02:36:50;;;;;;;1.90;1.30;;;7.10;99.90;;;;;;5052384;28;20172;-89
2022/09/19 02:39:40;;;;;;;0.53;0.53;;;7.00;99.90;;;;;;5052694;28;20210;-89
2022/09/19 02:42:43;;;;;;;0.60;0.60;;;7.00;99.90;;;;;;5052051;28;20183;-88
2022/09/19 02:45:28;;;;;;;2.17;1.37;;;7.00;99.90;;;;;;5052247;28;20201;-87
2022/09/19 02:48:19;;;;;;;1.87;0.77;;;7.00;99.90;;;;;;5050079;28;20548;-89
2022/09/19 02:50:58;;;;;;;0.70;0.70;;;6.90;99.90;;;;;;5044839;28;20188;-89
2022/09/19 02:53:27;;;;;;;2.57;0.70;;;6.90;99.90;;;;;;5014860;28;20242;-90
2022/09/19 02:55:57;;;;;;;0.57;0.57;;;7.20;99.90;;;;;;5032675;28;20195;-90
2022/09/19 02:58:25;;;;;;;1.00;1.00;;;6.90;99.90;;;;;;5014668;28;20177;-88
2022/09/19 03:00:56;;;;;;;0.70;0.70;;;6.80;99.90;;;;;;5033905;28;20185;-89
2022/09/19 03:06:14;;;;;;;0.60;0.60;;;6.70;99.90;;;;;;5033485;28;20250;-86
2022/09/19 03:08:44;;;;;;;0.50;0.50;;;7.90;99.90;;;;;;5055157;28;20234;-88
2022/09/19 03:11:14;;;;;;;0.90;0.90;;;6.80;99.90;;;;;;5039011;28;20184;-88
2022/09/19 03:13:41;;;;;;;1.17;1.17;;;6.70;99.90;;;;;;5052947;28;20664;-88
2022/09/19 03:16:11;;;;;;;1.10;1.10;;;6.70;99.90;;;;;;5037161;28;20295;-88
2022/09/19 03:18:39;;;;;;;0.73;0.73;;;6.60;99.90;;;;;;5036398;28;20172;-88
2022/09/19 03:21:08;;;;;;;2.03;1.80;;;6.70;99.90;;;;;;5020140;28;20189;-89
2022/09/19 03:24:00;;;;;;;3.07;1.67;;;6.60;99.90;;;;;;5037275;28;20269;-88
2022/09/19 03:26:34;;;;;;;2.77;1.93;;;6.60;99.90;;;;;;5048511;28;20746;-87
2022/09/19 03:29:02;;;;;;;1.20;1.10;;;6.60;99.90;;;;;;5054893;28;20180;-89
2022/09/19 03:31:28;;;;;;;1.67;1.57;;;7.00;99.90;;;;;;5054599;28;20195;-88
2022/09/19 03:33:57;;;;;;;2.93;1.37;;;6.80;99.90;;;;;;5024696;28;20177;-87
2022/09/19 03:36:25;;;;;;;1.43;1.33;;;7.60;99.90;;;;;;5030935;28;20621;-87
2022/09/19 03:38:50;;;;;;;1.00;1.00;;;6.50;99.90;;;;;;5032520;28;20204;-88
2022/09/19 03:41:18;;;;;;;1.30;1.07;;;6.90;99.90;;;;;;5037939;28;20197;-90
2022/09/19 03:43:44;;;;;;;0.93;0.90;;;6.50;99.90;;;;;;5042268;28;20247;-90
2022/09/19 03:46:12;;;;;;;2.17;1.53;;;6.50;99.90;;;;;;5034790;28;20663;-93
2022/09/19 03:48:39;;;;;;;1.13;1.13;;;6.50;99.90;;;;;;5045386;28;20188;-92
2022/09/19 03:51:05;;;;;;;1.07;0.90;;;6.50;99.90;;;;;;5043159;28;20279;-91
2022/09/19 03:53:30;;;;;;;0.67;0.67;;;7.80;99.90;;;;;;5033526;28;20193;-91
2022/09/19 03:55:57;;;;;;;1.03;0.93;;;7.30;99.90;;;;;;5043200;28;20527;-90
2022/09/19 03:58:23;;;;;;;1.80;1.43;;;6.50;99.90;;;;;;5044511;28;20184;-91
2022/09/19 04:00:50;;;;;;;0.57;0.53;;;6.40;99.90;;;;;;5051997;28;20250;-89
2022/09/19 04:03:18;;;;;;;0.83;0.83;;;6.40;99.90;;;;;;5043307;28;20199;-89
2022/09/19 04:05:45;;;;;;;2.10;0.93;;;6.40;99.90;;;;;;5053641;28;20175;-90
2022/09/19 04:08:11;;;;;;;0.80;0.80;;;6.40;99.90;;;;;;5034093;28;20211;-89
2022/09/19 04:10:37;;;;;;;0.70;0.70;;;6.40;99.90;;;;;;5051453;28;20231;-90
2022/09/19 04:13:03;;;;;;;0.93;0.93;;;7.70;99.90;;;;;;5037265;28;20192;-89
2022/09/19 04:15:28;;;;;;;4.83;1.63;;;6.40;99.90;;;;;;5027885;28;20664;-87
2022/09/19 04:17:54;;;;;;;1.20;0.77;;;6.40;99.90;;;;;;5042736;28;20196;-88
2022/09/19 04:20:19;;;;;;;0.60;0.60;;;6.90;99.90;;;;;;5021692;28;20758;-89
2022/09/19 04:22:45;;;;;;;0.73;0.70;;;6.40;99.90;;;;;;5053058;28;20191;-89
2022/09/19 04:25:14;;;;;;;0.70;0.70;;;6.50;99.90;;;;;;5053389;28;20188;-87
2022/09/19 04:27:40;;;;;;;0.77;0.77;;;6.40;99.90;;;;;;5052301;28;20191;-88
2022/09/19 04:30:06;;;;;;;0.63;0.63;;;6.40;99.90;;;;;;5034315;28;20223;-88
2022/09/19 04:32:32;;;;;;;0.60;0.60;;;6.40;99.90;;;;;;5044204;28;20613;-88
2022/09/19 04:34:59;;;;;;;0.67;0.67;;;6.50;99.90;;;;;;5035496;28;20195;-87
2022/09/19 04:37:26;;;;;;;0.50;0.50;;;7.10;99.90;;;;;;5031446;28;20197;-86
2022/09/19 04:39:52;;;;;;;1.20;0.83;;;6.50;99.90;;;;;;5034779;28;20220;-87
2022/09/19 04:42:18;;;;;;;0.73;0.73;;;7.30;99.90;;;;;;5032647;28;20193;-89
2022/09/19 04:44:44;;;;;;;0.90;0.90;;;7.20;99.90;;;;;;5047835;28;20235;-88
2022/09/19 04:47:10;;;;;;;0.70;0.70;;;7.00;99.90;;;;;;5024607;28;20287;-86
2022/09/19 04:49:39;;;;;;;0.93;0.93;;;7.10;99.90;;;;;;5017261;28;20220;-87
2022/09/19 04:52:06;;;;;;;0.40;0.40;;;6.70;99.90;;;;;;5016428;28;20178;-87
2022/09/19 04:54:37;;;;;;;0.93;0.93;;;6.70;99.90;;;;;;5015631;28;20189;-86
2022/09/19 04:57:07;;;;;;;0.80;0.80;;;7.50;99.90;;;;;;5027480;28;20181;-87
2022/09/19 04:59:34;;;;;;;7.60;1.13;;;6.80;99.90;;;;;;5023608;28;20209;-90
2022/09/19 05:02:01;;;;;;;1.17;0.90;;;6.90;99.90;;;;;;5018214;28;20274;-87
2022/09/19 05:04:27;;;;;;;2.63;1.00;;;7.10;99.90;;;;;;5014422;28;20197;-87
2022/09/19 05:06:53;;;;;;;0.60;0.60;;;8.00;99.90;;;;;;5013764;28;20193;-87
2022/09/19 05:09:22;;;;;;;0.90;0.90;;;7.10;99.90;;;;;;5024091;28;20318;-87
2022/09/19 05:11:49;;;;;;;1.37;1.13;;;7.10;99.90;;;;;;5000387;28;20567;-88
2022/09/19 05:14:14;;;;;;;0.93;0.93;;;7.10;99.90;;;;;;5034005;28;20184;-88
2022/09/19 05:16:41;;;;;;;0.80;0.80;;;7.20;99.90;;;;;;5033858;28;20184;-88
2022/09/19 05:19:08;;;;;;;1.20;0.77;;;7.30;99.90;;;;;;5033354;28;20326;-87
2022/09/19 05:21:34;;;;;;;1.00;0.90;;;8.50;99.90;;;;;;5033226;28;20260;-88
2022/09/19 05:24:01;;;;;;;0.70;0.70;;;7.40;99.90;;;;;;5032450;28;20200;-87
2022/09/19 05:26:27;;;;;;;0.67;0.67;;;7.40;99.90;;;;;;5033033;28;20176;-86
2022/09/19 05:28:53;;;;;;;4.40;1.43;;;7.50;99.90;;;;;;5032120;28;20287;-87
2022/09/19 05:31:20;;;;;;;1.47;1.37;;;7.50;99.90;;;;;;5032392;28;20644;-86
2022/09/19 05:33:48;;;;;;;1.47;1.37;;;7.90;99.90;;;;;;5032698;28;20192;-85
2022/09/19 05:36:14;;;;;;;1.03;1.00;;;8.10;99.90;;;;;;5033386;28;20260;-87
2022/09/19 05:38:41;;;;;;;1.33;0.73;;;7.60;99.90;;;;;;5032888;28;20268;-87
2022/09/19 05:41:07;;;;;;;2.00;1.40;;;7.70;99.90;;;;;;5033154;28;20655;-86
2022/09/19 05:43:33;;;;;;;2.03;1.87;;;7.70;99.90;;;;;;5024121;28;20235;-87
2022/09/19 05:45:59;;;;;;;1.80;1.63;;;7.70;99.90;;;;;;4995321;28;20188;-88
2022/09/19 05:48:26;;;;;;;1.50;1.23;;;7.70;99.90;;;;;;5009916;28;20192;-88
2022/09/19 05:50:53;;;;;;;0.93;0.93;;;9.40;99.90;;;;;;5022625;28;20181;-86
2022/09/19 05:56:05;;;;;;;1.17;1.17;;;7.80;99.90;;;;;;5031722;28;20200;-86
2022/09/19 05:58:33;;;;;;;2.20;1.47;;;7.90;99.90;;;;;;5030621;28;20259;-86
2022/09/19 06:01:03;;;;;;;1.43;1.33;;;7.90;99.90;;;;;;5013372;28;20653;-87
2022/09/19 06:03:28;;;;;;;2.30;1.07;;;7.90;99.90;;;;;;5030705;28;20208;-86
2022/09/19 06:05:55;;;;;;;2.47;1.33;;;8.80;99.90;;;;;;5031420;28;20219;-86
2022/09/19 06:08:22;;;;;;;1.50;1.40;;;8.10;99.90;;;;;;5030122;28;20207;-88
2022/09/19 06:10:48;;;;;;;1.33;1.23;;;9.10;99.90;;;;;;5028361;28;20189;-87
2022/09/19 06:13:20;;;;;;;1.57;1.47;;;8.10;99.90;;;;;;5027542;28;20271;-87
2022/09/19 06:15:46;;;;;;;1.90;1.70;;;8.10;99.90;;;;;;5040454;28;20185;-87
2022/09/19 06:18:12;;;;;;;1.70;1.60;;;8.20;99.90;;;;;;5041300;28;20172;-86
2022/09/19 06:20:38;;;;;;;1.67;1.57;;;8.10;99.90;;;;;;5055848;28;20219;-86
2022/09/19 06:23:06;;;;;;;1.93;1.73;;;9.20;99.90;;;;;;5057004;28;20179;-86
2022/09/19 06:25:33;;;;;;;1.53;1.43;;;8.20;99.90;;;;;;5057817;28;20191;-86
2022/09/19 06:28:00;;;;;;;2.17;1.23;;;8.20;99.90;;;;;;5057588;28;20164;-86
2022/09/19 06:30:26;;;;;;;2.87;2.30;;;8.30;99.90;;;;;;5048253;28;20208;-86
2022/09/19 06:32:53;;;;;;;1.20;1.10;;;9.20;99.90;;;;;;5045079;28;20195;-86
2022/09/19 06:35:20;;;;;;;2.07;1.50;;;8.30;99.90;;;;;;5036052;28;20196;-85
2022/09/19 06:37:47;;;;;;;1.20;1.20;;;8.40;99.90;;;;;;5056531;28;20173;-86
2022/09/19 06:40:14;;;;;;;1.13;1.13;;;9.70;99.90;;;;;;5056875;28;20243;-87
2022/09/19 06:42:40;;;;;;;1.47;1.33;;;8.80;99.90;;;;;;5039202;28;20673;-86
2022/09/19 06:45:07;;;;;;;1.10;1.10;;;8.50;99.90;;;;;;5048265;28;20206;-86
2022/09/19 06:47:35;;;;;;;0.67;0.67;;;8.50;99.90;;;;;;5048456;28;20215;-86
2022/09/19 06:50:01;;;;;;;1.50;1.40;;;9.10;99.90;;;;;;5031311;28;20230;-86
2022/09/19 06:52:28;;;;;;;0.73;0.73;;;8.50;99.90;;;;;;5046496;28;20176;-85
2022/09/19 06:54:54;;;;;;;0.80;0.80;;;8.60;99.90;;;;;;5046664;28;20576;-86
2022/09/19 06:57:20;;;;;;;1.17;1.07;;;8.60;99.90;;;;;;5045594;28;20727;-85
2022/09/19 06:59:46;;;;;;;1.70;1.53;;;8.60;99.90;;;;;;5026907;28;20218;-86
2022/09/19 07:02:12;;;;;;;1.27;0.83;;;8.70;99.90;;;;;;5029016;28;20187;-86
2022/09/19 07:04:38;;;;;;;1.07;0.97;;;8.70;99.90;;;;;;5027193;28;20198;-86
2022/09/19 07:07:05;;;;;;;0.73;0.73;;;8.60;99.90;;;;;;5052822;28;20186;-85
2022/09/19 07:09:31;;;;;;;1.17;1.07;;;8.60;99.90;;;;;;5049450;28;20187;-84
2022/09/19 07:11:56;;;;;;;1.50;1.17;;;8.70;99.90;;;;;;5044906;28;20656;-84
2022/09/19 07:14:25;;;;;;;0.83;0.83;;;8.70;99.90;;;;;;5044503;28;20210;-84
2022/09/19 07:16:50;;;;;;;1.47;1.37;;;8.70;99.90;;;;;;5047208;28;20238;-85
2022/09/19 07:19:16;;;;;;;1.17;1.17;;;8.80;99.90;;;;;;5027603;28;20237;-84
2022/09/19 07:21:43;;;;;;;0.80;0.80;;;8.80;99.90;;;;;;5027879;28;20663;-84
2022/09/19 07:24:08;;;;;;;0.80;0.80;;;8.80;99.90;;;;;;5025814;28;20726;-86
2022/09/19 07:26:34;;;;;;;1.10;1.00;;;8.70;99.90;;;;;;5027266;28;20232;-85
2022/09/19 07:29:00;;;;;;;1.07;1.07;;;8.80;99.90;;;;;;5027192;28;20183;-87
2022/09/19 07:31:29;;;;;;;1.20;1.20;;;8.80;99.90;;;;;;5028694;28;20176;-84
2022/09/19 07:33:55;;;;;;;1.20;1.10;;;8.80;99.90;;;;;;5044237;28;20180;-84
2022/09/19 07:36:21;;;;;;;2.43;2.23;;;8.90;99.90;;;;;;5045320;28;20200;-84
2022/09/19 07:38:50;;;;;;;1.27;1.17;;;8.90;99.90;;;;;;5043093;28;20173;-84
2022/09/19 07:41:17;;;;;;;2.83;1.93;;;9.10;99.90;;;;;;5044962;28;20192;-84
2022/09/19 07:43:48;;;;;;;1.00;1.00;;;9.10;99.90;;;;;;5027358;28;20220;-84
2022/09/19 07:46:17;;;;;;;1.20;1.20;;;9.10;99.90;;;;;;5045826;28;20176;-84
2022/09/19 07:48:46;;;;;;;6.53;0.90;;;9.10;99.90;;;;;;5045265;28;20231;-84
2022/09/19 07:51:12;;;;;;;0.90;0.90;;;9.10;99.90;;;;;;5045576;28;20651;-83
2022/09/19 07:53:37;;;;;;;0.83;0.83;;;9.10;99.90;;;;;;5044094;28;20259;-83
2022/09/19 07:56:04;;;;;;;0.90;0.90;;;10.10;99.90;;;;;;5025539;28;20580;-85
2022/09/19 07:58:30;;;;;;;1.50;1.40;;;9.20;99.90;;;;;;5016027;28;20188;-84
2022/09/19 08:00:59;;;;;;;1.37;1.27;;;9.30;99.90;;;;;;5027823;28;20231;-84
2022/09/19 08:03:24;;;;;;;1.37;1.20;;;10.00;99.90;;;;;;5043330;28;20216;-84
2022/09/19 08:05:51;;;;;;;1.00;0.90;;;9.50;99.90;;;;;;5027345;28;20619;-84
2022/09/19 08:08:20;;;;;;;1.23;1.13;;;9.80;99.90;;;;;;5025055;28;20629;-85
2022/09/19 08:10:45;;;;;;;1.37;1.27;;;9.50;99.90;;;;;;5045461;28;20661;-83
2022/09/19 08:13:13;;;;;;;1.40;1.30;;;9.50;99.90;;;;;;5044767;28;20214;-84
2022/09/19 08:15:39;;;;;;;0.70;0.70;;;9.60;99.90;;;;;;5029372;28;20188;-84
2022/09/19 08:18:19;;;;;;;0.67;0.67;;;9.70;99.90;;;;;;5035274;28;20553;-83
2022/09/19 08:20:45;;;;;;;1.43;1.33;;;9.90;99.90;;;;;;5037909;28;20294;-84
2022/09/19 08:23:13;;;;;;;1.00;1.00;;;10.50;99.90;;;;;;5043072;28;20190;-83
2022/09/19 08:25:42;;;;;;;1.77;1.37;;;9.80;99.90;;;;;;5050336;28;20183;-85
2022/09/19 08:28:09;;;;;;;0.93;0.90;;;11.00;99.90;;;;;;5044992;28;20188;-83
2022/09/19 08:30:35;;;;;;;1.23;1.23;;;9.80;99.90;;;;;;5030656;28;20191;-85
2022/09/19 08:33:02;;;;;;;1.40;1.30;;;9.90;99.90;;;;;;5053827;28;20210;-85
2022/09/19 08:35:29;;;;;;;0.93;0.93;;;10.00;99.90;;;;;;5056953;28;20200;-83
2022/09/19 08:37:57;;;;;;;2.37;1.47;;;10.00;99.90;;;;;;5062051;28;20184;-84
2022/09/19 08:40:43;;;;;;;1.10;0.97;;;10.00;99.90;;;;;;5041528;28;20224;-84
2022/09/19 08:43:33;;;;;;;0.83;0.83;;;9.90;99.90;;;;;;5047048;28;20235;-85
2022/09/19 08:46:02;;;;;;;0.93;0.83;;;10.00;99.90;;;;;;5033314;28;20177;-85
2022/09/19 08:48:38;;;;;;;1.30;1.10;;;11.20;99.90;;;;;;5034222;28;20190;-84
2022/09/19 08:51:26;;;;;;;1.07;1.00;;;10.10;99.90;;;;;;5016276;28;20184;-84
2022/09/19 08:54:02;;;;;;;0.77;0.77;;;10.00;99.90;;;;;;5016034;28;20241;-85
2022/09/19 08:56:29;;;;;;;1.03;1.03;;;9.90;99.90;;;;;;5033788;28;20176;-85
2022/09/19 08:58:59;;;;;;;1.30;1.10;;;10.10;99.90;;;;;;5033452;28;20238;-85
2022/09/19 09:01:29;;;;;;;0.70;0.70;;;10.10;99.90;;;;;;5034248;28;20207;-85
2022/09/19 09:04:11;;;;;;;0.83;0.83;;;10.20;99.90;;;;;;5034515;28;20259;-85
2022/09/19 09:06:52;;;;;;;2.80;1.77;;;10.30;99.90;;;;;;5034735;28;20173;-85
2022/09/19 09:09:45;;;;;;;1.07;1.00;;;10.30;99.90;;;;;;5019524;28;20251;-88
2022/09/19 09:12:32;;;;;;;1.07;1.00;;;10.30;99.90;;;;;;5034572;28;20185;-85
2022/09/19 09:15:07;;;;;;;0.67;0.67;;;10.30;99.90;;;;;;5016900;28;20216;-86
2022/09/19 09:18:09;;;;;;;0.60;0.60;;;10.50;99.90;;;;;;5034301;28;20234;-86
2022/09/19 09:20:57;;;;;;;0.70;0.70;;;10.70;99.90;;;;;;5034076;28;20688;-85
2022/09/19 09:23:31;;;;;;;0.93;0.93;;;10.90;99.90;;;;;;5019619;28;20180;-86
2022/09/19 09:26:24;;;;;;;1.47;1.10;;;12.40;99.90;;;;;;5016176;28;20249;-86
2022/09/19 09:29:03;;;;;;;1.03;1.03;;;11.30;99.90;;;;;;5033383;28;20180;-87
2022/09/19 09:31:35;;;;;;;0.65;0.65;;;11.50;99.90;;;;;;5034025;28;20230;-85
2022/09/19 09:34:14;;;;;;;1.33;1.23;;;11.50;99.90;;;;;;5016139;28;20184;-85
2022/09/19 09:36:55;;;;;;;3.40;1.33;;;11.40;99.90;;;;;;5016550;28;20183;-85
2022/09/19 09:39:27;;;;;;;1.00;0.65;;;12.00;99.90;;;;;;5033795;28;20750;-85
2022/09/19 09:41:57;;;;;;;0.82;0.82;;;11.40;99.90;;;;;;5033435;28;20314;-84
2022/09/19 09:44:39;;;;;;;0.57;0.57;;;11.50;99.90;;;;;;5033550;28;20235;-86
2022/09/19 09:47:25;;;;;;;0.60;0.60;;;11.80;99.90;;;;;;5033265;28;20587;-86
2022/09/19 09:49:56;;;;;;;1.17;0.82;;;12.20;99.90;;;;;;5033849;28;20246;-85
2022/09/19 09:52:41;;;;;;;0.80;0.80;;;12.40;99.90;;;;;;5033423;28;20172;-85
2022/09/19 09:58:25;;;;;;;0.60;0.60;;;12.10;99.90;;;;;;5033677;28;20274;-87
2022/09/19 10:04:07;;;;;;;1.02;0.93;;;11.90;99.90;;;;;;5033194;28;20191;-86
2022/09/19 10:06:43;;;;;;;0.70;0.70;;;11.70;99.90;;;;;;5043284;28;20244;-87
2022/09/19 10:09:36;;;;;;;2.47;0.52;;;11.70;99.90;;;;;;5052177;28;20184;-87
2022/09/19 10:12:27;;;;;;;0.70;0.70;;;12.00;99.90;;;;;;5053902;28;20655;-85
2022/09/19 10:14:58;;;;;;;0.88;0.80;;;12.30;99.90;;;;;;5035074;28;20177;-84
2022/09/19 10:17:28;;;;;;;1.63;0.80;;;12.70;99.90;;;;;;5052723;28;20171;-85
2022/09/19 10:20:03;;;;;;;0.73;0.73;;;12.50;99.90;;;;;;5035963;28;20269;-85
2022/09/19 10:22:29;;;;;;;0.60;0.60;;;12.50;99.90;;;;;;5053328;28;20260;-85
2022/09/19 10:24:59;;;;;;;0.55;0.55;;;13.40;99.90;;;;;;5053710;28;20315;-85
2022/09/19 10:27:31;;;;;;;1.00;1.00;;;12.60;99.90;;;;;;5052998;28;20183;-87
2022/09/19 10:30:20;;;;;;;1.00;1.00;;;12.70;99.90;;;;;;5035718;28;20190;-86
2022/09/19 10:32:47;;;;;;;2.00;1.20;;;12.90;99.90;;;;;;5053437;28;20180;-86
2022/09/19 10:35:37;;;;;;;0.90;0.70;;;13.20;99.90;;;;;;5052850;28;20519;-87
2022/09/19 10:38:13;;;;;;;2.15;0.60;;;13.20;99.90;;;;;;5052430;28;20180;-87
2022/09/19 10:40:53;;;;;;;0.68;0.60;;;13.30;99.90;;;;;;5053015;28;20365;-86
2022/09/19 10:43:31;;;;;;;1.08;0.95;;;13.40;99.90;;;;;;5052461;28;20269;-85
2022/09/19 10:45:58;;;;;;;2.38;1.13;;;13.50;99.90;;;;;;5052709;28;20234;-86
2022/09/19 10:48:31;;;;;;;0.55;0.55;;;13.60;99.90;;;;;;5052365;28;20195;-85
2022/09/19 10:50:58;;;;;;;0.73;0.65;;;13.60;99.90;;;;;;5036468;28;20326;-85
2022/09/19 10:53:32;;;;;;;0.65;0.57;;;13.50;99.90;;;;;;5035010;28;20191;-86
2022/09/19 10:56:22;;;;;;;0.40;0.40;;;13.30;99.90;;;;;;5034792;28;20171;-86
2022/09/19 10:58:50;;;;;;;0.50;0.50;;;13.20;99.90;;;;;;5034649;28;20180;-86
2022/09/19 11:01:34;;;;;;;0.60;0.60;;;13.20;99.90;;;;;;5017924;28;20219;-85
2022/09/19 11:04:13;;;;;;;0.90;0.90;;;13.10;99.90;;;;;;5015289;28;20212;-87
2022/09/19 11:06:56;;;;;;;1.10;1.00;;;13.00;99.90;;;;;;5032804;28;20179;-86
2022/09/19 11:09:36;;;;;;;0.50;0.50;;;12.90;99.90;;;;;;5015027;28;20181;-86
2022/09/19 11:12:05;;;;;;;0.50;0.50;;;12.70;99.90;;;;;;5033304;28;20175;-87
2022/09/19 11:14:35;;;;;;;0.98;0.98;;;12.80;99.90;;;;;;5015307;28;20176;-87
2022/09/19 11:17:29;;;;;;;0.70;0.65;;;12.90;99.90;;;;;;5015205;28;20665;-88
2022/09/19 11:20:20;;;;;;;0.70;0.55;;;13.00;99.90;;;;;;5014747;28;20215;-86
2022/09/19 11:23:10;;;;;;;1.15;0.93;;;12.90;99.90;;;;;;5032778;28;20260;-86
2022/09/19 11:25:42;;;;;;;0.60;0.60;;;12.90;99.90;;;;;;5014825;28;20192;-87
2022/09/19 11:28:48;;;;;;;3.22;1.13;;;12.90;99.90;;;;;;5024925;28;20223;-86
2022/09/19 11:31:36;;;;;;;0.80;0.80;;;13.00;99.90;;;;;;5054664;28;20309;-86
2022/09/19 11:34:11;;;;;;;2.50;0.95;;;12.90;99.90;;;;;;5041258;28;20652;-88
2022/09/19 11:36:56;;;;;;;0.75;0.52;;;12.70;99.90;;;;;;5055544;28;20620;-87
2022/09/19 11:39:48;;;;;;;0.98;0.50;;;12.80;99.90;;;;;;5049632;28;20282;-87
2022/09/19 11:42:20;;;;;;;0.88;0.88;;;12.80;99.90;;;;;;5022817;28;20181;-88
2022/09/19 11:44:52;;;;;;;1.08;0.63;;;12.80;99.90;;;;;;5035293;28;20243;-87
2022/09/19 11:47:21;;;;;;;0.95;0.70;;;12.80;99.90;;;;;;5053925;28;20204;-88
2022/09/19 11:50:08;;;;;;;1.05;0.98;;;12.70;99.90;;;;;;5037287;28;20211;-87
2022/09/19 11:52:56;;;;;;;1.33;0.80;;;12.50;99.90;;;;;;5037861;28;20191;-89
2022/09/19 11:55:56;;;;;;;0.68;0.68;;;12.50;99.90;;;;;;5058134;28;20179;-89
2022/09/19 11:59:05;;;;;;;0.60;0.60;;;12.30;99.90;;;;;;5037961;28;20541;-88
2022/09/19 12:01:53;;;;;;;3.80;1.30;;;12.30;99.90;;;;;;4948693;29;20196;-87
2022/09/19 12:04:27;;;;;;;0.57;0.57;;;12.30;99.90;;;;;;5033081;28;20187;-87
2022/09/19 12:07:28;;;;;;;1.77;0.85;;;12.30;99.90;;;;;;5042314;28;20210;-87
2022/09/19 12:10:19;;;;;;;1.23;1.23;;;12.30;99.90;;;;;;5050495;28;20179;-86
2022/09/19 12:13:09;;;;;;;0.77;0.77;;;12.30;99.90;;;;;;5055550;28;20531;-87
2022/09/19 12:15:38;;;;;;;2.05;1.38;;;12.30;99.90;;;;;;5021639;28;20203;-87
2022/09/19 12:18:10;;;;;;;0.82;0.82;;;12.40;99.90;;;;;;5054607;28;20184;-86
2022/09/19 12:20:41;;;;;;;0.65;0.65;;;12.50;99.90;;;;;;5051762;28;20299;-87
2022/09/19 12:26:16;;;;;;;1.10;0.80;;;12.70;99.90;;;;;;5074926;28;20230;-88
2022/09/19 12:29:21;;;;;;;0.75;0.60;;;12.80;99.90;;;;;;5059846;28;20172;-87
2022/09/19 12:31:55;;;;;;;0.52;0.52;;;13.10;99.90;;;;;;5057358;28;20226;-85
2022/09/19 12:34:50;;;;;;;0.68;0.65;;;13.10;99.90;;;;;;5064876;28;20188;-89
2022/09/19 12:37:30;;;;;;;0.70;0.65;;;13.20;99.90;;;;;;5054043;28;20277;-85
2022/09/19 12:40:14;;;;;;;1.23;0.65;;;13.10;99.90;;;;;;5066262;28;20222;-86
2022/09/19 12:43:33;;;;;;;0.70;0.70;;;13.10;99.90;;;;;;5067132;28;20176;-87
2022/09/19 12:46:20;;;;;;;0.65;0.65;;;13.50;99.90;;;;;;4940870;29;20193;-87
2022/09/19 12:49:03;;;;;;;0.50;0.50;;;13.80;99.90;;;;;;5039534;28;20200;-91
2022/09/19 12:51:55;;;;;;;1.58;0.70;;;13.90;99.90;;;;;;5051863;28;20165;-88
2022/09/19 12:54:43;;;;;;;0.70;0.70;;;13.90;99.90;;;;;;4998308;28;20193;-89
2022/09/19 12:57:18;;;;;;;0.38;0.38;;;13.80;99.90;;;;;;5036467;28;20537;-90
2022/09/19 12:59:47;;;;;;;0.50;0.50;;;14.00;99.90;;;;;;5035773;28;20211;-86
2022/09/19 13:02:36;;;;;;;0.95;0.73;;;14.30;99.90;;;;;;5026428;28;20263;-86
2022/09/19 13:05:39;;;;;;;0.40;0.40;;;14.30;99.90;;;;;;5038448;28;20175;-87
2022/09/19 13:08:31;;;;;;;0.60;0.60;;;14.20;99.90;;;;;;5056127;28;20221;-88
2022/09/19 13:11:12;;;;;;;1.02;0.80;;;14.00;99.90;;;;;;5056038;28;20176;-88
2022/09/19 13:13:56;;;;;;;0.95;0.85;;;13.40;99.90;;;;;;5036922;28;20271;-87
2022/09/19 13:16:28;;;;;;;0.75;0.65;;;13.00;99.90;;;;;;5034023;28;20204;-92
2022/09/19 13:24:41;;;;;;;1.70;0.73;;;12.00;99.90;;;;;;5040573;28;20196;-95
2022/09/19 13:27:09;;;;;;;0.60;0.60;;;11.80;99.90;;;;;;5054753;28;20266;-94
2022/09/19 13:29:35;;;;;;;0.52;0.52;;;12.00;99.90;;;;;;5053748;28;20287;-90
2022/09/19 13:32:04;;;;;;;2.80;1.13;;;12.60;99.90;;;;;;5036994;28;20216;-86
2022/09/19 13:34:39;;;;;;;0.63;0.60;;;11.50;99.90;;;;;;5045483;28;20176;-87
2022/09/19 13:37:29;;;;;;;0.70;0.70;;;11.50;99.90;;;;;;5031806;28;20263;-86
2022/09/19 13:40:23;;;;;;;0.32;0.32;;;11.50;99.90;;;;;;5032932;28;20330;-86
2022/09/19 13:42:54;;;;;;;0.80;0.70;;;11.40;99.90;;;;;;5032810;28;20177;-86
2022/09/19 13:45:54;;;;;;;0.60;0.60;;;11.40;99.90;;;;;;5033112;28;20272;-84
2022/09/19 13:48:38;;;;;;;0.63;0.63;;;11.30;99.90;;;;;;5033196;28;20204;-85
2022/09/19 13:51:39;;;;;;;0.93;0.55;;;11.20;99.90;;;;;;5042917;28;20721;-84